createdAt,value
2023-04-13T00:02:28.220Z,79.39
2023-04-13T00:04:55.198Z,79.55
2023-04-13T00:07:22.930Z,79.87
2023-04-13T00:09:50.926Z,79.89
2023-04-13T00:12:23.902Z,79.95
2023-04-13T00:14:50.885Z,80.31
2023-04-13T00:17:17.913Z,80.55
2023-04-13T00:19:50.395Z,80.15
2023-04-13T00:22:18.665Z,80.75
2023-04-13T00:24:45.986Z,80.87
2023-04-13T00:27:16.389Z,80.93
2023-04-13T00:29:43.208Z,80.98
2023-04-13T00:32:10.122Z,80.84
2023-04-13T00:34:36.915Z,81.17
2023-04-13T00:37:07.327Z,81.12
2023-04-13T00:39:36.989Z,81.76
2023-04-13T00:42:04.389Z,81.48
2023-04-13T00:44:36.063Z,81.78
2023-04-13T00:47:05.317Z,81.76
2023-04-13T00:49:35.967Z,81.87
2023-04-13T00:52:03.395Z,82.17
2023-04-13T00:54:35.965Z,82.16
2023-04-13T00:57:02.882Z,82.08
2023-04-13T00:59:32.024Z,82.35
2023-04-13T01:02:02.351Z,82.50
2023-04-13T01:04:32.507Z,82.32
2023-04-13T01:07:12.158Z,82.51
2023-04-13T01:09:45.502Z,82.41
2023-04-13T01:12:19.192Z,82.54
2023-04-13T01:14:58.560Z,83.08
2023-04-13T01:17:30.633Z,82.66
2023-04-13T01:20:12.195Z,82.70
2023-04-13T01:22:48.230Z,82.99
2023-04-13T01:25:42.635Z,82.45
2023-04-13T01:28:13.659Z,82.69
2023-04-13T01:30:40.850Z,83.04
2023-04-13T01:33:09.782Z,83.24
2023-04-13T01:35:39.360Z,83.07
2023-04-13T01:38:09.772Z,83.18
2023-04-13T01:40:40.819Z,83.21
2023-04-13T01:43:10.508Z,83.24
2023-04-13T01:46:14.322Z,83.42
2023-04-13T01:48:41.285Z,83.19
2023-04-13T01:51:25.192Z,83.46
2023-04-13T01:54:12.584Z,83.74
2023-04-13T01:56:44.198Z,83.87
2023-04-13T01:59:11.477Z,83.82
2023-04-13T02:01:41.632Z,83.90
2023-04-13T02:04:08.804Z,84.09
2023-04-13T02:06:39.626Z,84.23
2023-04-13T02:09:08.795Z,84.06
2023-04-13T02:11:37.882Z,84.64
2023-04-13T02:14:05.049Z,84.54
2023-04-13T02:16:34.919Z,84.59
2023-04-13T02:19:04.230Z,84.64
2023-04-13T02:21:31.053Z,84.83
2023-04-13T02:23:58.246Z,84.80
2023-04-13T02:26:29.336Z,84.85
2023-04-13T02:28:56.660Z,84.99
2023-04-13T02:31:25.994Z,84.97
2023-04-13T02:33:58.963Z,85.52
2023-04-13T02:36:29.179Z,85.58
2023-04-13T02:38:58.863Z,85.42
2023-04-13T02:45:18.263Z,84.97
2023-04-13T02:47:45.398Z,85.32
2023-04-13T02:50:16.015Z,85.89
2023-04-13T02:52:44.166Z,85.74
2023-04-13T02:55:16.063Z,85.91
2023-04-13T02:57:43.724Z,85.87
2023-04-13T03:00:13.424Z,86.56
2023-04-13T03:02:45.086Z,86.69
2023-04-13T03:05:13.039Z,86.73
2023-04-13T03:07:45.561Z,86.89
2023-04-13T03:10:16.706Z,86.82
2023-04-13T03:12:46.867Z,86.62
2023-04-13T03:15:17.499Z,86.93
2023-04-13T03:17:44.886Z,86.44
2023-04-13T03:20:13.462Z,86.28
2023-04-13T03:22:40.625Z,86.51
2023-04-13T03:25:12.804Z,86.95
2023-04-13T03:27:42.027Z,86.88
2023-04-13T03:30:09.354Z,87.33
2023-04-13T03:32:36.604Z,87.42
2023-04-13T03:35:09.080Z,87.81
2023-04-13T03:37:43.120Z,87.91
2023-04-13T03:40:10.655Z,88.12
2023-04-13T03:42:40.985Z,88.07
2023-04-13T03:45:08.463Z,88.20
2023-04-13T03:47:35.677Z,88.18
2023-04-13T03:50:04.042Z,88.34
2023-04-13T03:52:33.290Z,88.71
2023-04-13T03:55:00.599Z,88.52
2023-04-13T03:57:27.549Z,88.47
2023-04-13T03:59:57.292Z,88.77
2023-04-13T04:02:26.480Z,88.27
2023-04-13T04:04:56.377Z,88.31
2023-04-13T04:07:23.690Z,88.42
2023-04-13T04:09:53.001Z,88.65
2023-04-13T04:12:24.201Z,88.93
2023-04-13T04:14:53.879Z,89.13
2023-04-13T04:17:23.057Z,89.02
2023-04-13T04:19:50.158Z,89.17
2023-04-13T04:22:21.595Z,89.50
2023-04-13T04:24:50.157Z,89.20
2023-04-13T04:27:22.479Z,89.17
2023-04-13T04:29:51.997Z,89.33
2023-04-13T04:32:20.113Z,89.27
2023-04-13T04:34:47.333Z,89.24
2023-04-13T04:37:20.778Z,89.36
2023-04-13T04:39:50.717Z,89.34
2023-04-13T04:42:18.971Z,89.36
2023-04-13T04:44:50.258Z,89.46
2023-04-13T04:47:17.565Z,89.35
2023-04-13T04:49:44.609Z,89.40
2023-04-13T04:52:14.819Z,89.61
2023-04-13T04:54:41.696Z,89.65
2023-04-13T04:57:12.843Z,89.77
2023-04-13T04:59:41.856Z,89.35
2023-04-13T05:02:08.773Z,89.69
2023-04-13T05:04:44.610Z,89.35
2023-04-13T05:07:18.191Z,89.44
2023-04-13T05:09:45.578Z,88.88
2023-04-13T05:12:16.917Z,88.93
2023-04-13T05:14:49.930Z,89.01
2023-04-13T05:17:19.133Z,88.60
2023-04-13T05:19:47.474Z,88.45
2023-04-13T05:22:15.721Z,88.29
2023-04-13T05:24:48.398Z,88.31
2023-04-13T05:27:20.023Z,88.67
2023-04-13T05:29:47.847Z,88.34
2023-04-13T05:32:21.415Z,88.29
2023-04-13T05:34:48.297Z,88.34
2023-04-13T05:37:20.261Z,88.62
2023-04-13T05:39:50.433Z,88.17
2023-04-13T05:42:29.476Z,88.31
2023-04-13T05:44:59.548Z,88.21
2023-04-13T05:49:26.572Z,87.78
2023-04-13T05:51:32.065Z,87.04
2023-04-13T05:53:59.350Z,86.96
2023-04-13T05:56:29.948Z,86.18
2023-04-13T05:59:02.966Z,86.17
2023-04-13T06:01:33.883Z,87.35
2023-04-13T06:04:02.540Z,87.56
2023-04-13T06:06:30.504Z,89.30
2023-04-13T06:08:57.667Z,88.93
2023-04-13T06:11:26.109Z,88.86
2023-04-13T06:13:53.137Z,88.18
2023-04-13T06:16:26.996Z,88.06
2023-04-13T06:18:53.992Z,87.85
2023-04-13T06:21:20.958Z,87.61
2023-04-13T06:23:53.827Z,87.43
2023-04-13T06:26:21.274Z,87.26
2023-04-13T06:29:08.851Z,86.97
2023-04-13T06:31:35.990Z,86.55
2023-04-13T06:34:05.746Z,86.78
2023-04-13T06:36:33.115Z,87.19
2023-04-13T06:39:04.068Z,87.47
2023-04-13T06:41:49.150Z,87.76
2023-04-13T06:44:24.658Z,87.80
2023-04-13T06:47:15.940Z,87.99
2023-04-13T06:51:14.066Z,87.51
2023-04-13T06:53:52.004Z,86.68
2023-04-13T06:59:10.648Z,87.25
2023-04-13T07:04:38.381Z,87.45
2023-04-13T07:10:07.953Z,88.00
2023-04-13T07:16:06.936Z,87.03
2023-04-13T07:18:36.129Z,87.23
2023-04-13T07:21:02.874Z,86.82
2023-04-13T07:23:34.912Z,87.37
2023-04-13T07:26:30.235Z,87.02
2023-04-13T07:29:01.388Z,86.85
2023-04-13T07:31:31.933Z,86.46
2023-04-13T07:34:10.013Z,85.69
2023-04-13T07:36:37.593Z,85.40
2023-04-13T07:39:09.336Z,85.21
2023-04-13T07:41:38.583Z,85.16
2023-04-13T07:44:07.946Z,85.28
2023-04-13T07:46:34.945Z,84.97
2023-04-13T07:49:02.198Z,85.40
2023-04-13T07:51:30.198Z,85.40
2023-04-13T07:53:59.628Z,84.67
2023-04-13T07:56:27.250Z,84.79
2023-04-13T07:58:54.536Z,84.29
2023-04-13T08:01:35.051Z,84.28
2023-04-13T08:04:01.921Z,83.00
2023-04-13T08:06:31.995Z,82.08
2023-04-13T08:09:00.070Z,79.84
2023-04-13T08:11:27.315Z,75.28
2023-04-13T08:13:54.271Z,74.24
2023-04-13T08:16:21.556Z,76.91
2023-04-13T08:18:48.636Z,78.56
2023-04-13T08:21:17.698Z,79.76
2023-04-13T08:23:47.605Z,81.03
2023-04-13T08:26:21.476Z,82.05
2023-04-13T08:28:53.265Z,81.67
2023-04-13T08:31:23.481Z,82.35
2023-04-13T08:33:52.915Z,80.88
2023-04-13T08:36:22.522Z,79.95
2023-04-13T08:38:49.699Z,79.23
2023-04-13T08:41:17.737Z,78.90
2023-04-13T08:43:47.067Z,79.92
2023-04-13T08:46:21.394Z,79.43
2023-04-13T08:48:54.033Z,79.85
2023-04-13T08:51:26.642Z,80.95
2023-04-13T08:53:53.769Z,81.39
2023-04-13T08:56:28.308Z,81.62
2023-04-13T08:59:07.610Z,81.37
2023-04-13T09:01:39.827Z,81.63
2023-04-13T09:04:12.337Z,81.57
2023-04-13T09:06:43.555Z,81.53
2023-04-13T09:09:14.709Z,80.49
2023-04-13T09:11:48.427Z,79.46
2023-04-13T09:14:20.243Z,79.17
2023-04-13T09:16:47.719Z,79.00
2023-04-13T09:19:14.454Z,79.43
2023-04-13T09:21:45.864Z,79.38
2023-04-13T09:24:12.911Z,79.53
2023-04-13T09:26:44.737Z,79.41
2023-04-13T09:29:16.464Z,77.98
2023-04-13T09:31:45.167Z,78.26
2023-04-13T09:34:12.692Z,78.07
2023-04-13T09:36:49.479Z,78.13
2023-04-13T09:39:29.296Z,78.15
2023-04-13T09:42:09.709Z,76.64
2023-04-13T09:44:38.755Z,76.03
2023-04-13T09:47:08.729Z,74.87
2023-04-13T09:49:38.882Z,74.04
2023-04-13T09:52:26.067Z,74.31
2023-04-13T09:55:02.070Z,74.71
2023-04-13T09:57:32.662Z,74.83
2023-04-13T10:00:02.485Z,75.21
2023-04-13T10:02:30.539Z,74.19
2023-04-13T10:04:58.824Z,73.49
2023-04-13T10:07:31.839Z,73.25
2023-04-13T10:09:58.881Z,73.89
2023-04-13T10:12:27.721Z,73.77
2023-04-13T10:15:06.361Z,73.54
2023-04-13T10:17:45.219Z,74.03
2023-04-13T10:20:13.939Z,74.26
2023-04-13T10:22:45.917Z,74.50
2023-04-13T10:25:29.100Z,74.61
2023-04-13T10:28:00.673Z,74.57
2023-04-13T10:30:27.843Z,74.55
2023-04-13T10:33:10.044Z,73.92
2023-04-13T10:35:41.454Z,73.51
2023-04-13T10:38:12.564Z,72.99
2023-04-13T10:40:44.589Z,72.62
2023-04-13T10:43:13.434Z,72.10
2023-04-13T10:45:40.233Z,71.46
2023-04-13T10:48:07.585Z,70.88
2023-04-13T10:50:34.573Z,70.45
2023-04-13T10:53:05.042Z,70.41
2023-04-13T10:55:33.221Z,70.31
2023-04-13T10:58:03.328Z,70.96
2023-04-13T11:00:45.529Z,70.72
2023-04-13T11:03:17.242Z,70.67
2023-04-13T11:05:49.546Z,70.61
2023-04-13T11:08:22.048Z,69.85
2023-04-13T11:10:59.050Z,69.83
2023-04-13T11:13:26.929Z,70.05
2023-04-13T11:16:03.022Z,70.11
2023-04-13T11:18:32.602Z,69.83
2023-04-13T11:20:59.386Z,69.14
2023-04-13T11:23:36.468Z,69.20
2023-04-13T11:26:11.692Z,68.76
2023-04-13T11:28:44.097Z,68.05
2023-04-13T11:31:12.206Z,67.57
2023-04-13T11:33:40.546Z,67.26
2023-04-13T11:36:10.849Z,66.57
2023-04-13T11:38:39.693Z,66.46
2023-04-13T11:41:14.932Z,66.22
2023-04-13T11:43:46.140Z,65.61
2023-04-13T11:46:15.444Z,65.21
2023-04-13T11:48:43.236Z,65.06
2023-04-13T11:51:15.066Z,64.91
2023-04-13T11:53:41.895Z,64.73
2023-04-13T11:56:09.132Z,64.05
2023-04-13T11:58:39.649Z,63.43
2023-04-13T12:01:13.948Z,63.23
2023-04-13T12:03:56.979Z,62.99
2023-04-13T12:06:38.692Z,63.20
2023-04-13T12:09:13.513Z,63.04
2023-04-13T12:12:15.978Z,62.90
2023-04-13T12:19:45.973Z,61.17
2023-04-13T12:22:14.824Z,60.80
2023-04-13T12:24:45.465Z,56.01
2023-04-13T12:27:18.885Z,57.66
2023-04-13T12:29:47.539Z,58.47
2023-04-13T12:32:16.223Z,58.13
2023-04-13T12:34:50.663Z,58.12
2023-04-13T12:37:21.973Z,58.47
2023-04-13T12:39:48.925Z,58.02
2023-04-13T12:42:18.274Z,57.85
2023-04-13T12:44:45.536Z,57.75
2023-04-13T12:47:13.358Z,57.79
2023-04-13T12:49:40.108Z,57.39
2023-04-13T12:52:07.205Z,56.94
2023-04-13T12:54:33.910Z,56.34
2023-04-13T12:57:01.744Z,56.01
2023-04-13T12:59:31.031Z,55.51
2023-04-13T13:01:59.942Z,54.34
2023-04-13T13:04:30.279Z,55.29
2023-04-13T13:06:56.868Z,55.34
2023-04-13T13:09:25.881Z,55.12
2023-04-13T13:11:52.734Z,55.59
2023-04-13T13:14:22.359Z,55.65
2023-04-13T13:16:50.251Z,51.88
2023-04-13T13:19:17.179Z,53.93
2023-04-13T13:21:43.863Z,54.68
2023-04-13T13:24:10.516Z,55.05
2023-04-13T13:26:58.602Z,55.12
2023-04-13T13:29:28.049Z,55.32
2023-04-13T13:31:54.825Z,54.40
2023-04-13T13:34:21.446Z,54.58
2023-04-13T13:36:48.008Z,54.08
2023-04-13T13:39:14.661Z,53.99
2023-04-13T13:41:41.360Z,53.86
2023-04-13T13:44:08.148Z,54.28
2023-04-13T13:46:36.640Z,53.87
2023-04-13T13:49:03.565Z,53.68
2023-04-13T13:51:32.628Z,53.74
2023-04-13T13:53:59.579Z,53.00
2023-04-13T13:56:30.974Z,52.81
2023-04-13T13:59:00.104Z,53.22
2023-04-13T14:01:27.477Z,52.95
2023-04-13T14:03:57.159Z,53.16
2023-04-13T14:06:26.513Z,53.10
2023-04-13T14:08:56.292Z,52.57
2023-04-13T14:11:23.109Z,52.34
2023-04-13T14:13:49.819Z,52.14
2023-04-13T14:16:17.279Z,52.03
2023-04-13T14:18:43.900Z,51.65
2023-04-13T14:21:15.816Z,51.71
2023-04-13T14:23:47.397Z,51.87
2023-04-13T14:26:14.010Z,52.14
2023-04-13T14:28:40.846Z,52.16
2023-04-13T14:31:07.565Z,51.97
2023-04-13T14:33:34.287Z,51.57
2023-04-13T14:36:01.123Z,51.48
2023-04-13T14:38:27.779Z,51.54
2023-04-13T14:40:56.769Z,51.88
2023-04-13T14:43:23.473Z,52.13
2023-04-13T14:45:55.143Z,50.48
2023-04-13T14:48:23.146Z,50.35
2023-04-13T14:50:52.920Z,50.55
2023-04-13T14:53:19.598Z,50.43
2023-04-13T14:55:46.614Z,50.42
2023-04-13T14:58:13.433Z,50.26
2023-04-13T15:00:40.277Z,50.83
2023-04-13T15:03:15.048Z,50.81
2023-04-13T15:05:45.522Z,50.77
2023-04-13T15:08:16.723Z,50.82
2023-04-13T15:10:43.501Z,50.10
2023-04-13T15:13:10.249Z,50.17
2023-04-13T15:15:40.559Z,50.47
2023-04-13T15:18:08.283Z,50.27
2023-04-13T15:20:39.883Z,50.09
2023-04-13T15:23:11.070Z,49.33
2023-04-13T15:25:38.418Z,49.45
2023-04-13T15:28:05.043Z,49.00
2023-04-13T15:30:43.742Z,48.53
2023-04-13T15:33:14.637Z,48.73
2023-04-13T15:35:45.727Z,48.14
2023-04-13T15:38:12.355Z,48.33
2023-04-13T15:40:39.169Z,48.29
2023-04-13T15:43:08.548Z,48.33
2023-04-13T15:45:35.500Z,48.17
2023-04-13T15:48:05.274Z,47.46
2023-04-13T15:50:39.236Z,47.51
2023-04-13T15:53:10.699Z,48.08
2023-04-13T15:55:40.124Z,48.13
2023-04-13T15:58:12.773Z,48.00
2023-04-13T16:00:39.650Z,48.07
2023-04-13T16:03:07.818Z,47.77
2023-04-13T16:05:59.783Z,48.65
2023-04-13T16:08:27.112Z,48.71
2023-04-13T16:10:54.577Z,48.25
2023-04-13T16:13:28.313Z,48.46
2023-04-13T16:16:07.895Z,48.23
2023-04-13T16:18:36.398Z,47.73
2023-04-13T16:21:04.400Z,47.20
2023-04-13T16:23:34.915Z,47.57
2023-04-13T16:26:09.712Z,47.61
2023-04-13T16:28:41.192Z,47.09
2023-04-13T16:31:11.270Z,47.05
2023-04-13T16:33:39.846Z,47.11
2023-04-13T16:36:13.887Z,46.97
2023-04-13T16:38:44.107Z,47.73
2023-04-13T16:41:13.139Z,48.53
2023-04-13T16:43:40.025Z,49.08
2023-04-13T16:46:06.657Z,49.90
2023-04-13T16:48:36.517Z,50.05
2023-04-13T16:51:03.628Z,50.45
2023-04-13T16:53:31.812Z,50.72
2023-04-13T16:55:59.633Z,51.24
2023-04-13T16:58:26.831Z,51.45
2023-04-13T17:00:55.187Z,51.46
2023-04-13T17:03:25.739Z,52.00
2023-04-13T17:05:58.545Z,51.82
2023-04-13T17:08:30.422Z,51.94
2023-04-13T17:11:19.494Z,51.83
2023-04-13T17:13:47.356Z,51.97
2023-04-13T17:16:20.820Z,52.14
2023-04-13T17:18:47.467Z,52.38
2023-04-13T17:21:18.843Z,52.46
2023-04-13T17:23:48.034Z,52.58
2023-04-13T17:26:20.186Z,52.71
2023-04-13T17:28:49.237Z,52.67
2023-04-13T17:31:16.792Z,52.79
2023-04-13T17:33:45.276Z,52.49
2023-04-13T17:36:12.301Z,52.78
2023-04-13T17:38:39.140Z,52.23
2023-04-13T17:41:07.183Z,52.11
2023-04-13T17:43:37.697Z,52.52
2023-04-13T17:46:05.916Z,52.89
2023-04-13T17:48:33.707Z,53.23
2023-04-13T17:51:03.650Z,53.60
2023-04-13T17:53:33.890Z,53.12
2023-04-13T17:56:00.575Z,53.34
2023-04-13T17:58:27.265Z,53.64
2023-04-13T18:00:55.237Z,53.33
2023-04-13T18:03:24.176Z,53.40
2023-04-13T18:05:51.856Z,53.02
2023-04-13T18:08:19.296Z,53.02
2023-04-13T18:10:49.502Z,52.71
2023-04-13T18:13:16.995Z,53.28
2023-04-13T18:15:48.072Z,54.19
2023-04-13T18:18:15.294Z,54.21
2023-04-13T18:20:42.125Z,55.23
2023-04-13T18:23:09.192Z,55.49
2023-04-13T18:25:35.885Z,57.72
2023-04-13T18:28:04.689Z,57.75
2023-04-13T18:30:33.484Z,58.11
2023-04-13T18:33:00.183Z,59.26
2023-04-13T18:35:27.644Z,60.01
2023-04-13T18:37:54.346Z,62.83
2023-04-13T18:40:21.216Z,63.12
2023-04-13T18:42:50.789Z,63.24
2023-04-13T18:45:18.205Z,63.48
2023-04-13T18:47:47.095Z,63.53
2023-04-13T18:50:16.391Z,63.77
2023-04-13T18:52:45.504Z,63.64
2023-04-13T18:55:12.230Z,64.49
2023-04-13T18:57:44.143Z,63.43
2023-04-13T19:00:11.622Z,63.46
2023-04-13T19:02:39.913Z,62.34
2023-04-13T19:05:06.891Z,62.55
2023-04-13T19:07:39.181Z,62.41
2023-04-13T19:10:06.685Z,62.97
2023-04-13T19:12:33.531Z,63.06
2023-04-13T19:15:00.289Z,63.43
2023-04-13T19:17:28.572Z,63.89
2023-04-13T19:19:56.037Z,64.53
2023-04-13T19:22:22.960Z,64.99
2023-04-13T19:24:49.820Z,64.79
2023-04-13T19:27:16.702Z,65.62
2023-04-13T19:29:43.468Z,65.60
2023-04-13T19:32:12.618Z,66.86
2023-04-13T19:34:39.357Z,66.78
2023-04-13T19:37:07.109Z,67.32
2023-04-13T19:39:34.049Z,67.34
2023-04-13T19:42:03.058Z,68.23
2023-04-13T19:44:29.737Z,68.71
2023-04-13T19:46:56.321Z,68.98
2023-04-13T19:49:23.020Z,69.67
2023-04-13T19:51:49.622Z,70.35
2023-04-13T19:54:16.518Z,70.24
2023-04-13T19:56:45.762Z,70.64
2023-04-13T19:59:14.604Z,71.22
2023-04-13T20:01:41.250Z,71.42
2023-04-13T20:04:09.076Z,71.38
2023-04-13T20:06:38.160Z,71.80
2023-04-13T20:09:12.785Z,72.36
2023-04-13T20:11:41.801Z,71.88
2023-04-13T20:14:13.849Z,72.66
2023-04-13T20:16:40.768Z,72.42
2023-04-13T20:19:09.994Z,73.15
2023-04-13T20:21:36.910Z,73.26
2023-04-13T20:24:08.621Z,73.64
2023-04-13T20:26:35.247Z,73.68
2023-04-13T20:29:04.557Z,73.69
2023-04-13T20:31:32.912Z,73.95
2023-04-13T20:34:00.062Z,74.55
2023-04-13T20:36:29.264Z,74.68
2023-04-13T20:38:59.749Z,75.34
2023-04-13T20:41:33.906Z,75.61
2023-04-13T20:44:01.112Z,75.85
2023-04-13T20:46:37.084Z,76.13
2023-04-13T20:49:05.506Z,76.40
2023-04-13T20:51:33.493Z,76.50
2023-04-13T20:54:03.234Z,76.68
2023-04-13T20:56:30.355Z,77.04
2023-04-13T20:59:01.142Z,77.33
2023-04-13T21:01:32.818Z,77.56
2023-04-13T21:04:00.004Z,77.22
2023-04-13T21:06:30.288Z,77.59
2023-04-13T21:08:59.021Z,77.66
2023-04-13T21:11:26.271Z,77.78
2023-04-13T21:13:55.743Z,78.02
2023-04-13T21:16:25.442Z,78.01
2023-04-13T21:18:57.202Z,78.14
2023-04-13T21:21:25.185Z,78.25
2023-04-13T21:23:53.208Z,78.36
2023-04-13T21:26:22.507Z,78.56
2023-04-13T21:28:49.442Z,78.60
2023-04-13T21:31:16.821Z,78.80
2023-04-13T21:33:44.062Z,78.97
2023-04-13T21:38:41.974Z,78.88
2023-04-13T21:41:19.882Z,78.95
2023-04-13T21:43:50.085Z,79.00
2023-04-13T21:46:18.893Z,79.02
2023-04-13T21:48:46.026Z,78.87
2023-04-13T21:51:13.077Z,79.27
2023-04-13T21:53:40.314Z,79.43
2023-04-13T21:56:07.788Z,79.76
2023-04-13T21:58:42.245Z,79.94
2023-04-13T22:01:13.016Z,79.81
2023-04-13T22:03:48.223Z,79.95
2023-04-13T22:06:15.144Z,80.00
2023-04-13T22:08:44.227Z,80.28
2023-04-13T22:11:13.527Z,80.41
2023-04-13T22:13:42.462Z,80.50
2023-04-13T22:16:10.115Z,80.63
2023-04-13T22:18:37.142Z,80.87
2023-04-13T22:21:04.020Z,81.16
2023-04-13T22:23:33.576Z,81.27
2023-04-13T22:26:03.201Z,81.23
2023-04-13T22:28:33.855Z,81.48
2023-04-13T22:31:12.098Z,81.42
2023-04-13T22:33:40.923Z,81.53
2023-04-13T22:36:20.148Z,81.91
2023-04-13T22:38:59.358Z,81.77
2023-04-13T22:41:26.440Z,81.83
2023-04-13T22:43:53.305Z,81.91
2023-04-13T22:46:24.174Z,82.12
2023-04-13T22:48:53.408Z,82.37
2023-04-13T22:51:22.674Z,82.43
2023-04-13T22:53:49.485Z,82.21
2023-04-13T22:56:16.686Z,82.61
2023-04-13T22:58:43.614Z,82.35
2023-04-13T23:01:10.356Z,82.68
2023-04-13T23:03:37.319Z,82.67
2023-04-13T23:06:07.419Z,82.89
2023-04-13T23:08:34.670Z,82.88
2023-04-13T23:11:11.004Z,82.99
2023-04-13T23:13:37.995Z,83.35
2023-04-13T23:16:08.664Z,83.09
2023-04-13T23:18:35.974Z,83.49
2023-04-13T23:21:14.698Z,83.31
2023-04-13T23:23:43.903Z,83.58
2023-04-13T23:26:13.321Z,83.73
2023-04-13T23:28:43.864Z,83.69
2023-04-13T23:31:17.409Z,83.61
2023-04-13T23:33:54.905Z,83.74
2023-04-13T23:36:27.807Z,83.04
2023-04-13T23:38:57.411Z,83.40
2023-04-13T23:41:27.534Z,83.40
2023-04-13T23:43:55.628Z,83.01
2023-04-13T23:46:25.557Z,83.19
2023-04-13T23:48:54.666Z,83.23
2023-04-13T23:51:31.313Z,83.19
2023-04-13T23:53:58.708Z,83.80
2023-04-13T23:56:34.325Z,83.97
2023-04-13T23:59:01.952Z,83.65
